sensor_id;sensor_type;location;lat;lon;timestamp;temperature;humidity
12907;DHT22;6521;50.498;8.474;2023-07-09T00:02:27;22.09;61.13
12907;DHT22;6521;50.498;8.474;2023-07-09T00:04:58;22.09;61.05
12907;DHT22;6521;50.498;8.474;2023-07-09T00:07:30;22.06;61.04
12907;DHT22;6521;50.498;8.474;2023-07-09T00:10:02;22.02;61.00
12907;DHT22;6521;50.498;8.474;2023-07-09T00:12:33;22.02;61.10
12907;DHT22;6521;50.498;8.474;2023-07-09T00:15:04;21.98;61.28
12907;DHT22;6521;50.498;8.474;2023-07-09T00:17:35;21.91;61.29
12907;DHT22;6521;50.498;8.474;2023-07-09T00:20:11;21.88;61.32
12907;DHT22;6521;50.498;8.474;2023-07-09T00:22:44;21.82;61.43
12907;DHT22;6521;50.498;8.474;2023-07-09T00:25:22;21.78;61.43
12907;DHT22;6521;50.498;8.474;2023-07-09T00:27:54;21.71;61.70
12907;DHT22;6521;50.498;8.474;2023-07-09T00:30:25;21.62;61.86
12907;DHT22;6521;50.498;8.474;2023-07-09T00:32:56;21.58;61.97
12907;DHT22;6521;50.498;8.474;2023-07-09T00:35:27;21.54;61.87
12907;DHT22;6521;50.498;8.474;2023-07-09T00:37:58;21.51;61.88
12907;DHT22;6521;50.498;8.474;2023-07-09T00:40:31;21.48;62.13
12907;DHT22;6521;50.498;8.474;2023-07-09T00:43:02;21.41;62.21
12907;DHT22;6521;50.498;8.474;2023-07-09T00:45:32;21.38;62.33
12907;DHT22;6521;50.498;8.474;2023-07-09T00:48:12;21.37;62.32
12907;DHT22;6521;50.498;8.474;2023-07-09T00:50:49;21.33;62.42
12907;DHT22;6521;50.498;8.474;2023-07-09T00:53:29;21.28;62.62
12907;DHT22;6521;50.498;8.474;2023-07-09T00:56:07;21.20;62.93
12907;DHT22;6521;50.498;8.474;2023-07-09T00:58:41;21.17;63.00
12907;DHT22;6521;50.498;8.474;2023-07-09T01:01:14;21.17;63.28
12907;DHT22;6521;50.498;8.474;2023-07-09T01:03:54;21.16;63.29
12907;DHT22;6521;50.498;8.474;2023-07-09T01:06:33;21.13;63.28
12907;DHT22;6521;50.498;8.474;2023-07-09T01:09:06;21.07;63.05
12907;DHT22;6521;50.498;8.474;2023-07-09T01:11:37;21.02;63.22
12907;DHT22;6521;50.498;8.474;2023-07-09T01:14:14;21.07;63.52
12907;DHT22;6521;50.498;8.474;2023-07-09T01:16:55;21.00;63.95
12907;DHT22;6521;50.498;8.474;2023-07-09T01:19:38;20.97;64.15
12907;DHT22;6521;50.498;8.474;2023-07-09T01:22:18;20.95;64.33
12907;DHT22;6521;50.498;8.474;2023-07-09T01:25:08;20.89;64.46
12907;DHT22;6521;50.498;8.474;2023-07-09T01:27:43;20.86;64.69
12907;DHT22;6521;50.498;8.474;2023-07-09T01:33:24;20.80;64.79
12907;DHT22;6521;50.498;8.474;2023-07-09T01:35:55;20.79;65.18
12907;DHT22;6521;50.498;8.474;2023-07-09T01:38:30;20.69;65.31
12907;DHT22;6521;50.498;8.474;2023-07-09T01:41:01;20.66;65.61
12907;DHT22;6521;50.498;8.474;2023-07-09T01:43:33;20.59;65.41
12907;DHT22;6521;50.498;8.474;2023-07-09T01:46:04;20.56;65.32
12907;DHT22;6521;50.498;8.474;2023-07-09T01:48:39;20.51;65.30
12907;DHT22;6521;50.498;8.474;2023-07-09T01:51:15;20.48;65.08
12907;DHT22;6521;50.498;8.474;2023-07-09T01:53:49;20.51;64.78
12907;DHT22;6521;50.498;8.474;2023-07-09T01:56:20;20.53;64.52
12907;DHT22;6521;50.498;8.474;2023-07-09T01:58:51;20.56;64.40
12907;DHT22;6521;50.498;8.474;2023-07-09T02:01:22;20.59;64.28
12907;DHT22;6521;50.498;8.474;2023-07-09T02:03:56;20.55;64.47
12907;DHT22;6521;50.498;8.474;2023-07-09T02:06:27;20.49;64.40
12907;DHT22;6521;50.498;8.474;2023-07-09T02:09:02;20.48;64.42
12907;DHT22;6521;50.498;8.474;2023-07-09T02:11:33;20.49;64.64
12907;DHT22;6521;50.498;8.474;2023-07-09T02:14:04;20.46;64.96
12907;DHT22;6521;50.498;8.474;2023-07-09T02:16:34;20.42;65.05
12907;DHT22;6521;50.498;8.474;2023-07-09T02:19:05;20.41;65.29
12907;DHT22;6521;50.498;8.474;2023-07-09T02:21:36;20.38;65.34
12907;DHT22;6521;50.498;8.474;2023-07-09T02:24:07;20.32;65.44
12907;DHT22;6521;50.498;8.474;2023-07-09T02:26:38;20.27;66.21
12907;DHT22;6521;50.498;8.474;2023-07-09T02:29:09;20.18;66.30
12907;DHT22;6521;50.498;8.474;2023-07-09T02:31:40;20.07;66.85
12907;DHT22;6521;50.498;8.474;2023-07-09T02:34:10;20.04;67.01
12907;DHT22;6521;50.498;8.474;2023-07-09T02:36:41;19.93;67.37
12907;DHT22;6521;50.498;8.474;2023-07-09T02:39:14;19.91;67.58
12907;DHT22;6521;50.498;8.474;2023-07-09T02:41:45;19.90;67.53
12907;DHT22;6521;50.498;8.474;2023-07-09T02:44:16;19.90;67.82
12907;DHT22;6521;50.498;8.474;2023-07-09T02:46:47;19.88;67.90
12907;DHT22;6521;50.498;8.474;2023-07-09T02:49:18;19.84;67.92
12907;DHT22;6521;50.498;8.474;2023-07-09T02:51:49;19.86;68.10
12907;DHT22;6521;50.498;8.474;2023-07-09T02:54:20;19.87;68.04
12907;DHT22;6521;50.498;8.474;2023-07-09T02:56:51;19.81;68.14
12907;DHT22;6521;50.498;8.474;2023-07-09T02:59:22;19.77;68.42
12907;DHT22;6521;50.498;8.474;2023-07-09T03:01:53;19.74;68.82
12907;DHT22;6521;50.498;8.474;2023-07-09T03:04:24;19.69;68.85
12907;DHT22;6521;50.498;8.474;2023-07-09T03:06:55;19.65;68.86
12907;DHT22;6521;50.498;8.474;2023-07-09T03:09:26;19.66;68.98
12907;DHT22;6521;50.498;8.474;2023-07-09T03:11:58;19.63;68.89
12907;DHT22;6521;50.498;8.474;2023-07-09T03:14:29;19.65;68.87
12907;DHT22;6521;50.498;8.474;2023-07-09T03:16:59;19.59;69.32
12907;DHT22;6521;50.498;8.474;2023-07-09T03:19:30;19.52;69.40
12907;DHT22;6521;50.498;8.474;2023-07-09T03:22:01;19.48;69.51
12907;DHT22;6521;50.498;8.474;2023-07-09T03:24:32;19.49;69.65
12907;DHT22;6521;50.498;8.474;2023-07-09T03:27:03;19.52;69.59
12907;DHT22;6521;50.498;8.474;2023-07-09T03:29:34;19.48;69.61
12907;DHT22;6521;50.498;8.474;2023-07-09T03:32:05;19.42;69.69
12907;DHT22;6521;50.498;8.474;2023-07-09T03:34:36;19.40;69.76
12907;DHT22;6521;50.498;8.474;2023-07-09T03:37:07;19.39;69.73
12907;DHT22;6521;50.498;8.474;2023-07-09T03:39:38;19.35;69.95
12907;DHT22;6521;50.498;8.474;2023-07-09T03:42:09;19.33;70.12
12907;DHT22;6521;50.498;8.474;2023-07-09T03:44:40;19.33;70.32
12907;DHT22;6521;50.498;8.474;2023-07-09T03:47:11;19.30;70.42
12907;DHT22;6521;50.498;8.474;2023-07-09T03:49:42;19.26;71.00
12907;DHT22;6521;50.498;8.474;2023-07-09T03:52:13;19.25;70.85
12907;DHT22;6521;50.498;8.474;2023-07-09T03:54:44;19.25;70.84
12907;DHT22;6521;50.498;8.474;2023-07-09T03:57:14;19.23;71.11
12907;DHT22;6521;50.498;8.474;2023-07-09T03:59:45;19.26;71.10
12907;DHT22;6521;50.498;8.474;2023-07-09T04:02:16;19.29;71.00
12907;DHT22;6521;50.498;8.474;2023-07-09T04:04:47;19.29;71.13
12907;DHT22;6521;50.498;8.474;2023-07-09T04:07:18;19.33;71.25
12907;DHT22;6521;50.498;8.474;2023-07-09T04:09:48;19.33;71.52
12907;DHT22;6521;50.498;8.474;2023-07-09T04:12:22;19.35;71.65
12907;DHT22;6521;50.498;8.474;2023-07-09T04:14:53;19.38;71.65
12907;DHT22;6521;50.498;8.474;2023-07-09T04:17:24;19.40;71.29
12907;DHT22;6521;50.498;8.474;2023-07-09T04:19:55;19.45;71.34
12907;DHT22;6521;50.498;8.474;2023-07-09T04:22:26;19.49;71.04
12907;DHT22;6521;50.498;8.474;2023-07-09T04:24:56;19.49;71.14
12907;DHT22;6521;50.498;8.474;2023-07-09T04:27:28;19.55;70.92
12907;DHT22;6521;50.498;8.474;2023-07-09T04:29:59;19.58;70.97
12907;DHT22;6521;50.498;8.474;2023-07-09T04:32:30;19.69;71.22
12907;DHT22;6521;50.498;8.474;2023-07-09T04:35:01;19.83;70.49
12907;DHT22;6521;50.498;8.474;2023-07-09T04:37:31;19.87;69.98
12907;DHT22;6521;50.498;8.474;2023-07-09T04:40:03;19.90;69.92
12907;DHT22;6521;50.498;8.474;2023-07-09T04:42:38;19.94;70.45
12907;DHT22;6521;50.498;8.474;2023-07-09T04:45:10;19.93;70.55
12907;DHT22;6521;50.498;8.474;2023-07-09T04:47:42;19.94;70.22
12907;DHT22;6521;50.498;8.474;2023-07-09T04:50:12;19.98;69.92
12907;DHT22;6521;50.498;8.474;2023-07-09T04:52:45;20.01;69.79
12907;DHT22;6521;50.498;8.474;2023-07-09T04:55:15;20.03;69.92
12907;DHT22;6521;50.498;8.474;2023-07-09T04:57:49;20.03;70.24
12907;DHT22;6521;50.498;8.474;2023-07-09T05:00:20;20.07;70.07
12907;DHT22;6521;50.498;8.474;2023-07-09T05:02:51;20.10;70.07
12907;DHT22;6521;50.498;8.474;2023-07-09T05:05:22;20.17;70.22
12907;DHT22;6521;50.498;8.474;2023-07-09T05:07:54;20.21;70.04
12907;DHT22;6521;50.498;8.474;2023-07-09T05:10:24;20.27;69.88
12907;DHT22;6521;50.498;8.474;2023-07-09T05:12:55;20.29;69.86
12907;DHT22;6521;50.498;8.474;2023-07-09T05:15:26;20.34;70.05
12907;DHT22;6521;50.498;8.474;2023-07-09T05:17:57;20.39;70.24
12907;DHT22;6521;50.498;8.474;2023-07-09T05:20:28;20.48;69.92
12907;DHT22;6521;50.498;8.474;2023-07-09T05:22:59;20.52;69.99
12907;DHT22;6521;50.498;8.474;2023-07-09T05:25:30;20.56;69.82
12907;DHT22;6521;50.498;8.474;2023-07-09T05:28:02;20.61;69.83
12907;DHT22;6521;50.498;8.474;2023-07-09T05:30:41;20.66;69.54
12907;DHT22;6521;50.498;8.474;2023-07-09T05:33:13;20.73;69.32
12907;DHT22;6521;50.498;8.474;2023-07-09T05:35:44;20.77;69.13
12907;DHT22;6521;50.498;8.474;2023-07-09T05:38:15;20.83;69.24
12907;DHT22;6521;50.498;8.474;2023-07-09T05:40:46;20.89;69.35
12907;DHT22;6521;50.498;8.474;2023-07-09T05:43:17;20.96;69.41
12907;DHT22;6521;50.498;8.474;2023-07-09T05:45:48;21.03;69.09
12907;DHT22;6521;50.498;8.474;2023-07-09T05:48:19;21.10;69.34
12907;DHT22;6521;50.498;8.474;2023-07-09T05:50:52;21.16;68.83
12907;DHT22;6521;50.498;8.474;2023-07-09T05:53:23;21.23;68.34
12907;DHT22;6521;50.498;8.474;2023-07-09T05:55:55;21.31;67.65
12907;DHT22;6521;50.498;8.474;2023-07-09T05:58:26;21.34;67.46
12907;DHT22;6521;50.498;8.474;2023-07-09T06:00:57;21.41;67.50
12907;DHT22;6521;50.498;8.474;2023-07-09T06:03:29;21.45;67.62
12907;DHT22;6521;50.498;8.474;2023-07-09T06:06:00;21.53;67.80
12907;DHT22;6521;50.498;8.474;2023-07-09T06:08:31;21.57;67.81
12907;DHT22;6521;50.498;8.474;2023-07-09T06:11:03;21.61;68.09
12907;DHT22;6521;50.498;8.474;2023-07-09T06:13:34;21.68;68.37
12907;DHT22;6521;50.498;8.474;2023-07-09T06:16:05;21.75;68.38
12907;DHT22;6521;50.498;8.474;2023-07-09T06:18:36;21.82;68.24
12907;DHT22;6521;50.498;8.474;2023-07-09T06:21:07;21.91;68.13
12907;DHT22;6521;50.498;8.474;2023-07-09T06:23:39;21.98;67.99
12907;DHT22;6521;50.498;8.474;2023-07-09T06:26:10;22.05;68.05
12907;DHT22;6521;50.498;8.474;2023-07-09T06:28:41;22.10;67.81
12907;DHT22;6521;50.498;8.474;2023-07-09T06:31:11;22.19;67.17
12907;DHT22;6521;50.498;8.474;2023-07-09T06:33:42;22.23;65.84
12907;DHT22;6521;50.498;8.474;2023-07-09T06:36:13;22.28;64.67
12907;DHT22;6521;50.498;8.474;2023-07-09T06:38:44;22.39;65.08
12907;DHT22;6521;50.498;8.474;2023-07-09T06:41:15;22.42;64.49
12907;DHT22;6521;50.498;8.474;2023-07-09T06:43:47;22.49;64.21
12907;DHT22;6521;50.498;8.474;2023-07-09T06:46:19;22.59;64.45
12907;DHT22;6521;50.498;8.474;2023-07-09T06:48:50;22.64;64.43
12907;DHT22;6521;50.498;8.474;2023-07-09T06:51:20;22.71;64.64
12907;DHT22;6521;50.498;8.474;2023-07-09T06:53:51;22.80;63.94
12907;DHT22;6521;50.498;8.474;2023-07-09T06:56:22;22.90;64.09
12907;DHT22;6521;50.498;8.474;2023-07-09T06:58:53;22.95;63.06
12907;DHT22;6521;50.498;8.474;2023-07-09T07:01:24;23.09;62.97
12907;DHT22;6521;50.498;8.474;2023-07-09T07:03:55;23.19;62.38
12907;DHT22;6521;50.498;8.474;2023-07-09T07:06:25;23.22;62.02
12907;DHT22;6521;50.498;8.474;2023-07-09T07:08:56;23.35;62.80
12907;DHT22;6521;50.498;8.474;2023-07-09T07:11:27;23.46;62.98
12907;DHT22;6521;50.498;8.474;2023-07-09T07:14:00;23.56;62.25
12907;DHT22;6521;50.498;8.474;2023-07-09T07:16:31;23.66;62.01
12907;DHT22;6521;50.498;8.474;2023-07-09T07:19:02;23.77;62.20
12907;DHT22;6521;50.498;8.474;2023-07-09T07:21:33;23.86;61.69
12907;DHT22;6521;50.498;8.474;2023-07-09T07:24:04;23.94;61.71
12907;DHT22;6521;50.498;8.474;2023-07-09T07:26:35;24.04;60.79
12907;DHT22;6521;50.498;8.474;2023-07-09T07:29:05;24.18;59.81
12907;DHT22;6521;50.498;8.474;2023-07-09T07:31:36;24.25;59.18
12907;DHT22;6521;50.498;8.474;2023-07-09T07:34:07;24.37;58.60
12907;DHT22;6521;50.498;8.474;2023-07-09T07:36:38;24.44;58.45
12907;DHT22;6521;50.498;8.474;2023-07-09T07:39:08;24.55;57.50
12907;DHT22;6521;50.498;8.474;2023-07-09T07:41:39;24.65;58.51
12907;DHT22;6521;50.498;8.474;2023-07-09T07:44:10;24.78;58.12
12907;DHT22;6521;50.498;8.474;2023-07-09T07:46:40;24.86;57.75
12907;DHT22;6521;50.498;8.474;2023-07-09T07:49:11;24.93;57.14
12907;DHT22;6521;50.498;8.474;2023-07-09T07:51:42;25.06;56.82
12907;DHT22;6521;50.498;8.474;2023-07-09T07:54:14;25.19;56.92
12907;DHT22;6521;50.498;8.474;2023-07-09T07:56:45;25.30;56.49
12907;DHT22;6521;50.498;8.474;2023-07-09T07:59:17;25.44;56.43
12907;DHT22;6521;50.498;8.474;2023-07-09T08:01:48;25.57;55.58
12907;DHT22;6521;50.498;8.474;2023-07-09T08:04:20;25.70;55.79
12907;DHT22;6521;50.498;8.474;2023-07-09T08:06:51;25.85;55.07
12907;DHT22;6521;50.498;8.474;2023-07-09T08:09:23;25.99;54.14
12907;DHT22;6521;50.498;8.474;2023-07-09T08:11:53;26.16;53.78
12907;DHT22;6521;50.498;8.474;2023-07-09T08:14:25;26.37;53.86
12907;DHT22;6521;50.498;8.474;2023-07-09T08:16:56;26.54;52.91
12907;DHT22;6521;50.498;8.474;2023-07-09T08:19:27;26.71;52.66
12907;DHT22;6521;50.498;8.474;2023-07-09T08:21:58;26.88;52.39
12907;DHT22;6521;50.498;8.474;2023-07-09T08:24:29;26.98;51.99
12907;DHT22;6521;50.498;8.474;2023-07-09T08:26:59;27.07;51.90
12907;DHT22;6521;50.498;8.474;2023-07-09T08:29:31;27.14;52.15
12907;DHT22;6521;50.498;8.474;2023-07-09T08:32:02;27.31;51.69
12907;DHT22;6521;50.498;8.474;2023-07-09T08:34:33;27.53;50.75
12907;DHT22;6521;50.498;8.474;2023-07-09T08:37:05;27.63;51.20
12907;DHT22;6521;50.498;8.474;2023-07-09T08:39:37;27.86;50.34
12907;DHT22;6521;50.498;8.474;2023-07-09T08:42:23;28.01;49.92
12907;DHT22;6521;50.498;8.474;2023-07-09T08:45:15;28.24;49.46
12907;DHT22;6521;50.498;8.474;2023-07-09T08:48:09;28.52;50.17
12907;DHT22;6521;50.498;8.474;2023-07-09T08:50:53;28.75;49.35
12907;DHT22;6521;50.498;8.474;2023-07-09T08:53:36;28.98;47.53
12907;DHT22;6521;50.498;8.474;2023-07-09T08:56:09;29.19;47.12
12907;DHT22;6521;50.498;8.474;2023-07-09T08:58:42;29.46;46.96
12907;DHT22;6521;50.498;8.474;2023-07-09T09:01:20;29.63;46.48
12907;DHT22;6521;50.498;8.474;2023-07-09T09:04:04;29.80;46.44
12907;DHT22;6521;50.498;8.474;2023-07-09T09:06:37;30.01;45.37
12907;DHT22;6521;50.498;8.474;2023-07-09T09:09:33;30.19;45.99
12907;DHT22;6521;50.498;8.474;2023-07-09T09:12:17;30.43;44.83
12907;DHT22;6521;50.498;8.474;2023-07-09T09:14:56;30.63;44.25
12907;DHT22;6521;50.498;8.474;2023-07-09T09:17:28;30.76;43.81
12907;DHT22;6521;50.498;8.474;2023-07-09T09:20:05;31.02;43.29
12907;DHT22;6521;50.498;8.474;2023-07-09T09:22:43;31.25;43.46
12907;DHT22;6521;50.498;8.474;2023-07-09T09:27:46;31.70;42.00
12907;DHT22;6521;50.498;8.474;2023-07-09T09:30:20;32.02;40.80
12907;DHT22;6521;50.498;8.474;2023-07-09T09:33:01;32.33;40.27
12907;DHT22;6521;50.498;8.474;2023-07-09T09:35:36;32.60;39.41
12907;DHT22;6521;50.498;8.474;2023-07-09T09:38:12;32.94;38.79
12907;DHT22;6521;50.498;8.474;2023-07-09T09:40:44;33.30;38.81
12907;DHT22;6521;50.498;8.474;2023-07-09T09:43:20;33.60;37.65
12907;DHT22;6521;50.498;8.474;2023-07-09T09:45:54;33.78;36.59
12907;DHT22;6521;50.498;8.474;2023-07-09T09:48:30;34.17;35.98
12907;DHT22;6521;50.498;8.474;2023-07-09T09:51:04;34.48;35.49
12907;DHT22;6521;50.498;8.474;2023-07-09T09:53:40;34.73;33.96
12907;DHT22;6521;50.498;8.474;2023-07-09T09:56:25;34.70;33.69
12907;DHT22;6521;50.498;8.474;2023-07-09T09:58:57;34.82;33.11
12907;DHT22;6521;50.498;8.474;2023-07-09T10:01:34;35.13;34.24
12907;DHT22;6521;50.498;8.474;2023-07-09T10:04:06;35.36;34.96
12907;DHT22;6521;50.498;8.474;2023-07-09T10:06:46;35.71;32.98
12907;DHT22;6521;50.498;8.474;2023-07-09T10:09:26;36.02;32.94
12907;DHT22;6521;50.498;8.474;2023-07-09T10:17:39;36.19;32.26
12907;DHT22;6521;50.498;8.474;2023-07-09T10:20:23;35.58;31.25
12907;DHT22;6521;50.498;8.474;2023-07-09T10:23:03;35.71;32.40
12907;DHT22;6521;50.498;8.474;2023-07-09T10:29:03;36.32;31.48
12907;DHT22;6521;50.498;8.474;2023-07-09T10:37:42;37.04;31.01
12907;DHT22;6521;50.498;8.474;2023-07-09T10:40:25;37.46;29.94
12907;DHT22;6521;50.498;8.474;2023-07-09T10:43:01;37.78;29.94
12907;DHT22;6521;50.498;8.474;2023-07-09T10:48:16;38.28;29.24
12907;DHT22;6521;50.498;8.474;2023-07-09T10:50:53;38.54;28.70
12907;DHT22;6521;50.498;8.474;2023-07-09T10:53:37;38.21;27.95
12907;DHT22;6521;50.498;8.474;2023-07-09T10:56:14;37.58;28.78
12907;DHT22;6521;50.498;8.474;2023-07-09T10:58:56;37.41;29.68
12907;DHT22;6521;50.498;8.474;2023-07-09T11:01:32;37.70;29.32
12907;DHT22;6521;50.498;8.474;2023-07-09T11:04:18;37.79;28.38
12907;DHT22;6521;50.498;8.474;2023-07-09T11:06:53;38.03;28.46
12907;DHT22;6521;50.498;8.474;2023-07-09T11:09:36;38.21;28.41
12907;DHT22;6521;50.498;8.474;2023-07-09T11:12:21;38.20;27.95
12907;DHT22;6521;50.498;8.474;2023-07-09T11:15:05;38.53;27.70
12907;DHT22;6521;50.498;8.474;2023-07-09T11:17:42;38.57;27.31
12907;DHT22;6521;50.498;8.474;2023-07-09T11:20:36;38.82;28.08
12907;DHT22;6521;50.498;8.474;2023-07-09T11:23:22;39.25;27.75
12907;DHT22;6521;50.498;8.474;2023-07-09T11:31:42;39.69;26.65
12907;DHT22;6521;50.498;8.474;2023-07-09T11:34:19;39.77;27.24
12907;DHT22;6521;50.498;8.474;2023-07-09T11:42:30;39.80;26.73
12907;DHT22;6521;50.498;8.474;2023-07-09T11:45:09;39.81;26.38
12907;DHT22;6521;50.498;8.474;2023-07-09T11:47:47;39.76;27.42
12907;DHT22;6521;50.498;8.474;2023-07-09T11:50:28;39.78;26.46
12907;DHT22;6521;50.498;8.474;2023-07-09T11:53:33;40.00;25.81
12907;DHT22;6521;50.498;8.474;2023-07-09T11:56:07;40.51;24.84
12907;DHT22;6521;50.498;8.474;2023-07-09T11:59:11;40.45;26.32
12907;DHT22;6521;50.498;8.474;2023-07-09T12:01:44;40.72;25.25
12907;DHT22;6521;50.498;8.474;2023-07-09T12:04:16;40.55;25.25
12907;DHT22;6521;50.498;8.474;2023-07-09T12:06:48;40.74;25.57
12907;DHT22;6521;50.498;8.474;2023-07-09T12:09:20;40.86;25.16
12907;DHT22;6521;50.498;8.474;2023-07-09T12:11:51;40.83;25.10
12907;DHT22;6521;50.498;8.474;2023-07-09T12:14:22;40.92;24.74
12907;DHT22;6521;50.498;8.474;2023-07-09T12:16:54;41.26;24.73
12907;DHT22;6521;50.498;8.474;2023-07-09T12:19:30;41.36;24.52
12907;DHT22;6521;50.498;8.474;2023-07-09T12:22:00;41.22;24.31
12907;DHT22;6521;50.498;8.474;2023-07-09T12:24:38;41.37;24.76
12907;DHT22;6521;50.498;8.474;2023-07-09T12:27:20;41.41;24.40
12907;DHT22;6521;50.498;8.474;2023-07-09T12:29:55;41.53;24.15
12907;DHT22;6521;50.498;8.474;2023-07-09T12:32:26;41.53;24.43
12907;DHT22;6521;50.498;8.474;2023-07-09T12:34:58;41.57;23.58
12907;DHT22;6521;50.498;8.474;2023-07-09T12:37:30;40.69;23.92
12907;DHT22;6521;50.498;8.474;2023-07-09T12:40:02;40.29;23.24
12907;DHT22;6521;50.498;8.474;2023-07-09T12:42:35;40.18;23.54
12907;DHT22;6521;50.498;8.474;2023-07-09T12:45:18;39.86;23.50
12907;DHT22;6521;50.498;8.474;2023-07-09T12:47:50;39.69;24.16
12907;DHT22;6521;50.498;8.474;2023-07-09T12:50:30;39.69;24.43
12907;DHT22;6521;50.498;8.474;2023-07-09T12:53:14;40.02;23.97
12907;DHT22;6521;50.498;8.474;2023-07-09T12:55:46;39.47;24.20
12907;DHT22;6521;50.498;8.474;2023-07-09T12:58:24;40.07;23.45
12907;DHT22;6521;50.498;8.474;2023-07-09T13:00:56;39.64;22.99
12907;DHT22;6521;50.498;8.474;2023-07-09T13:03:30;39.98;23.89
12907;DHT22;6521;50.498;8.474;2023-07-09T13:06:22;39.45;23.56
12907;DHT22;6521;50.498;8.474;2023-07-09T13:08:57;38.71;24.27
12907;DHT22;6521;50.498;8.474;2023-07-09T13:11:34;38.43;25.49
12907;DHT22;6521;50.498;8.474;2023-07-09T13:14:18;38.45;24.28
12907;DHT22;6521;50.498;8.474;2023-07-09T13:16:49;38.81;25.16
12907;DHT22;6521;50.498;8.474;2023-07-09T13:19:20;39.09;24.36
12907;DHT22;6521;50.498;8.474;2023-07-09T13:21:52;39.13;23.56
12907;DHT22;6521;50.498;8.474;2023-07-09T13:24:25;38.65;23.96
12907;DHT22;6521;50.498;8.474;2023-07-09T13:27:00;37.89;24.83
12907;DHT22;6521;50.498;8.474;2023-07-09T13:29:32;37.27;25.32
12907;DHT22;6521;50.498;8.474;2023-07-09T13:32:11;36.69;25.58
12907;DHT22;6521;50.498;8.474;2023-07-09T13:34:42;35.92;26.06
12907;DHT22;6521;50.498;8.474;2023-07-09T13:37:15;35.58;26.70
12907;DHT22;6521;50.498;8.474;2023-07-09T13:39:46;35.13;27.43
12907;DHT22;6521;50.498;8.474;2023-07-09T13:42:18;35.14;27.40
12907;DHT22;6521;50.498;8.474;2023-07-09T13:44:49;35.41;27.30
12907;DHT22;6521;50.498;8.474;2023-07-09T13:47:20;35.29;27.54
12907;DHT22;6521;50.498;8.474;2023-07-09T13:49:51;35.67;28.51
12907;DHT22;6521;50.498;8.474;2023-07-09T13:52:23;36.21;26.21
12907;DHT22;6521;50.498;8.474;2023-07-09T13:54:56;36.54;25.99
12907;DHT22;6521;50.498;8.474;2023-07-09T13:57:26;36.84;25.07
12907;DHT22;6521;50.498;8.474;2023-07-09T13:59:57;36.94;25.36
12907;DHT22;6521;50.498;8.474;2023-07-09T14:02:31;37.21;25.20
12907;DHT22;6521;50.498;8.474;2023-07-09T14:05:05;37.66;24.26
12907;DHT22;6521;50.498;8.474;2023-07-09T14:07:38;37.20;24.35
12907;DHT22;6521;50.498;8.474;2023-07-09T14:10:13;37.37;23.35
12907;DHT22;6521;50.498;8.474;2023-07-09T14:12:45;37.20;23.91
12907;DHT22;6521;50.498;8.474;2023-07-09T14:15:19;37.24;24.18
12907;DHT22;6521;50.498;8.474;2023-07-09T14:17:50;37.34;24.01
12907;DHT22;6521;50.498;8.474;2023-07-09T14:20:22;37.34;23.84
12907;DHT22;6521;50.498;8.474;2023-07-09T14:22:54;37.14;24.25
12907;DHT22;6521;50.498;8.474;2023-07-09T14:25:25;37.00;24.38
12907;DHT22;6521;50.498;8.474;2023-07-09T14:27:58;37.13;24.67
12907;DHT22;6521;50.498;8.474;2023-07-09T14:30:28;37.25;23.89
12907;DHT22;6521;50.498;8.474;2023-07-09T14:32:59;37.51;24.22
12907;DHT22;6521;50.498;8.474;2023-07-09T14:35:30;37.62;24.05
12907;DHT22;6521;50.498;8.474;2023-07-09T14:38:01;37.55;23.82
12907;DHT22;6521;50.498;8.474;2023-07-09T14:40:32;37.41;23.36
12907;DHT22;6521;50.498;8.474;2023-07-09T14:43:05;37.28;24.12
12907;DHT22;6521;50.498;8.474;2023-07-09T14:45:39;37.18;22.70
12907;DHT22;6521;50.498;8.474;2023-07-09T14:48:12;37.15;22.81
12907;DHT22;6521;50.498;8.474;2023-07-09T14:50:44;36.69;22.92
12907;DHT22;6521;50.498;8.474;2023-07-09T14:53:24;36.74;23.89
12907;DHT22;6521;50.498;8.474;2023-07-09T14:55:57;36.67;24.53
12907;DHT22;6521;50.498;8.474;2023-07-09T14:58:27;36.56;24.34
12907;DHT22;6521;50.498;8.474;2023-07-09T15:00:58;36.73;25.45
12907;DHT22;6521;50.498;8.474;2023-07-09T15:03:29;36.63;24.55
12907;DHT22;6521;50.498;8.474;2023-07-09T15:06:00;36.56;24.67
12907;DHT22;6521;50.498;8.474;2023-07-09T15:08:33;36.42;25.26
12907;DHT22;6521;50.498;8.474;2023-07-09T15:11:04;36.26;25.53
12907;DHT22;6521;50.498;8.474;2023-07-09T15:13:35;36.06;25.00
12907;DHT22;6521;50.498;8.474;2023-07-09T15:16:08;35.77;25.63
12907;DHT22;6521;50.498;8.474;2023-07-09T15:18:38;35.64;25.57
12907;DHT22;6521;50.498;8.474;2023-07-09T15:21:10;35.37;25.46
12907;DHT22;6521;50.498;8.474;2023-07-09T15:23:41;35.11;25.48
12907;DHT22;6521;50.498;8.474;2023-07-09T15:26:15;35.08;25.51
12907;DHT22;6521;50.498;8.474;2023-07-09T15:28:47;34.95;25.04
12907;DHT22;6521;50.498;8.474;2023-07-09T15:31:20;34.72;25.48
12907;DHT22;6521;50.498;8.474;2023-07-09T15:33:51;34.59;25.82
12907;DHT22;6521;50.498;8.474;2023-07-09T15:36:22;34.62;24.66
12907;DHT22;6521;50.498;8.474;2023-07-09T15:38:53;34.51;23.75
12907;DHT22;6521;50.498;8.474;2023-07-09T15:41:24;34.55;25.00
12907;DHT22;6521;50.498;8.474;2023-07-09T15:43:55;34.58;25.42
12907;DHT22;6521;50.498;8.474;2023-07-09T15:46:26;34.55;25.97
12907;DHT22;6521;50.498;8.474;2023-07-09T15:48:56;34.49;26.53
12907;DHT22;6521;50.498;8.474;2023-07-09T15:51:27;34.34;26.11
12907;DHT22;6521;50.498;8.474;2023-07-09T15:53:58;34.35;26.87
12907;DHT22;6521;50.498;8.474;2023-07-09T15:56:30;34.28;25.99
12907;DHT22;6521;50.498;8.474;2023-07-09T15:59:03;34.12;26.27
12907;DHT22;6521;50.498;8.474;2023-07-09T16:01:34;34.07;26.57
12907;DHT22;6521;50.498;8.474;2023-07-09T16:04:08;34.00;25.81
12907;DHT22;6521;50.498;8.474;2023-07-09T16:06:40;33.86;26.10
12907;DHT22;6521;50.498;8.474;2023-07-09T16:09:12;33.69;26.05
12907;DHT22;6521;50.498;8.474;2023-07-09T16:11:48;33.57;25.96
12907;DHT22;6521;50.498;8.474;2023-07-09T16:14:26;33.43;26.33
12907;DHT22;6521;50.498;8.474;2023-07-09T16:16:59;33.29;26.47
12907;DHT22;6521;50.498;8.474;2023-07-09T16:19:32;33.22;28.37
12907;DHT22;6521;50.498;8.474;2023-07-09T16:22:04;32.63;32.50
12907;DHT22;6521;50.498;8.474;2023-07-09T16:24:36;31.93;34.55
12907;DHT22;6521;50.498;8.474;2023-07-09T16:27:12;31.58;35.56
12907;DHT22;6521;50.498;8.474;2023-07-09T16:29:45;31.15;36.56
12907;DHT22;6521;50.498;8.474;2023-07-09T16:32:16;30.91;37.49
12907;DHT22;6521;50.498;8.474;2023-07-09T16:34:47;30.60;38.73
12907;DHT22;6521;50.498;8.474;2023-07-09T16:37:20;30.21;40.54
12907;DHT22;6521;50.498;8.474;2023-07-09T16:39:52;29.74;41.63
12907;DHT22;6521;50.498;8.474;2023-07-09T16:42:23;29.46;42.28
12907;DHT22;6521;50.498;8.474;2023-07-09T16:44:54;29.15;43.00
12907;DHT22;6521;50.498;8.474;2023-07-09T16:47:25;28.95;43.43
12907;DHT22;6521;50.498;8.474;2023-07-09T16:49:56;28.76;43.93
12907;DHT22;6521;50.498;8.474;2023-07-09T16:52:28;28.59;44.58
12907;DHT22;6521;50.498;8.474;2023-07-09T16:54:59;28.45;44.81
12907;DHT22;6521;50.498;8.474;2023-07-09T16:57:31;28.40;45.32
12907;DHT22;6521;50.498;8.474;2023-07-09T17:02:42;28.49;45.65